Welcome to Northern Hawkes Bay. New Zealand.
PWS Header
      nz Flag



Hit Counter


W3C Valid W3C Valid logo


    Wairoa

Select any of the Stations below to visit their websites.










Historic Data from Weather Underground
Select the location of interest below. Wairoa is the default. Please have patience, this Data is slow to load in.
Northern Hawkes Bay Historical Data
Daily Summary for October 2, 2017 Units:  Metric    English   Both
« Previous Day
Next Day »
Daily Weekly Monthly Yearly Custom
  High: Low: Average:
Temperature: 21.7 °C 6.5 °C 13.6 °C
Dew Point: 10.6 °C 6.2 °C 8.4 °C
Humidity: 99% 40% 74%
Wind Speed: 29.4km/h 0.0km/h 6.1km/h
Wind Gust: 39.3km/h - -
Wind- - West
Pressure: 1011.1 hPa 993.1 hPa -
Precipitation: 0.0 mm    
Historical Graphs
 
 
Tabular Data for October 2, 2017
Time Temperature Dew Point Pressure Wind Wind Speed Wind Gust Humidity Rainfall Rate (Hourly) solar
00:00 9.1 °C 8.9 °C 993.1 hPa NNW 3.5 km/h 7.2 km/h 99% 0.0 mm 0 W/m2
00:05 9.0 °C 8.8 °C 993.1 hPa NW 2.6 km/h 6.1 km/h 99% 0.0 mm 0 W/m2
00:10 9.0 °C 8.8 °C 993.1 hPa NW 2.6 km/h 6.1 km/h 99% 0.0 mm 0 W/m2
00:15 8.9 °C 8.8 °C 993.5 hPa NNW 2.6 km/h 5.0 km/h 99% 0.0 mm 0 W/m2
00:20 8.8 °C 8.7 °C 993.1 hPa NNW 2.6 km/h 5.0 km/h 99% 0.0 mm 0 W/m2
00:25 8.7 °C 8.6 °C 993.5 hPa NNW 2.6 km/h 5.0 km/h 99% 0.0 mm 0 W/m2
00:30 8.6 °C 8.4 °C 993.5 hPa NNW 1.1 km/h 5.0 km/h 99% 0.0 mm 0 W/m2
00:35 8.6 °C 8.4 °C 993.1 hPa NNW 2.6 km/h 5.0 km/h 99% 0.0 mm 0 W/m2
00:40 8.4 °C 8.3 °C 993.1 hPa NW 2.6 km/h 5.0 km/h 99% 0.0 mm 0 W/m2
00:45 8.4 °C 8.3 °C 993.5 hPa NW 2.6 km/h 5.0 km/h 99% 0.0 mm 0 W/m2
00:50 8.4 °C 8.3 °C 993.5 hPa Calm   5.0 km/h 99% 0.0 mm 0 W/m2
00:55 8.3 °C 8.2 °C 993.1 hPa Calm   3.5 km/h 99% 0.0 mm 0 W/m2
01:00 8.2 °C 8.1 °C 993.1 hPa Calm   2.6 km/h 99% 0.0 mm 0 W/m2
01:05 8.1 °C 7.9 °C 993.1 hPa North 2.6 km/h 3.5 km/h 99% 0.0 mm 0 W/m2
01:10 8.2 °C 8.1 °C 993.1 hPa Calm   3.5 km/h 99% 0.0 mm 0 W/m2
01:15 8.1 °C 7.9 °C 993.1 hPa Calm   3.5 km/h 99% 0.0 mm 0 W/m2
01:20 8.1 °C 7.9 °C 993.5 hPa Calm   2.6 km/h 99% 0.0 mm 0 W/m2
01:25 8.0 °C 7.8 °C 993.5 hPa Calm   2.6 km/h 99% 0.0 mm 0 W/m2
01:30 7.9 °C 7.4 °C 993.5 hPa Calm   1.1 km/h 97% 0.0 mm 0 W/m2
01:35 7.9 °C 7.4 °C 993.5 hPa Calm     97% 0.0 mm 0 W/m2
01:40 7.9 °C 7.4 °C 993.8 hPa Calm     97% 0.0 mm 0 W/m2
01:45 7.8 °C 7.3 °C 993.5 hPa NW 3.5 km/h 5.0 km/h 97% 0.0 mm 0 W/m2
01:50 7.7 °C 7.3 °C 993.8 hPa NW 2.6 km/h 5.0 km/h 97% 0.0 mm 0 W/m2
01:51 7.7 °C 7.3 °C 993.8 hPa NW 2.6 km/h 5.0 km/h 97% 0.0 mm 0 W/m2
01:56 7.7 °C 7.3 °C 993.8 hPa NW 2.6 km/h 5.0 km/h 97% 0.0 mm 0 W/m2
02:01 7.6 °C 7.2 °C 993.8 hPa NW 2.6 km/h 5.0 km/h 97% 0.0 mm 0 W/m2
02:06 7.6 °C 7.2 °C 993.8 hPa NNW 2.6 km/h 5.0 km/h 97% 0.0 mm 0 W/m2
02:11 7.5 °C 7.1 °C 993.5 hPa NNW 1.1 km/h 5.0 km/h 97% 0.0 mm 0 W/m2
02:16 7.4 °C 6.9 °C 993.5 hPa NW 1.1 km/h 3.5 km/h 97% 0.0 mm 0 W/m2
02:21 7.4 °C 6.9 °C 993.5 hPa NW 1.1 km/h 3.5 km/h 97% 0.0 mm 0 W/m2
02:26 7.4 °C 6.9 °C 993.8 hPa NW 2.6 km/h 3.5 km/h 97% 0.0 mm 0 W/m2
02:31 7.3 °C 6.8 °C 993.8 hPa Calm   3.5 km/h 97% 0.0 mm 0 W/m2
02:36 7.3 °C 6.8 °C 993.8 hPa Calm   3.5 km/h 97% 0.0 mm 0 W/m2
02:41 7.2 °C 6.8 °C 993.8 hPa NNW 1.1 km/h 2.6 km/h 97% 0.0 mm 0 W/m2
02:46 7.1 °C 6.7 °C 993.8 hPa Calm   2.6 km/h 97% 0.0 mm 0 W/m2
02:51 6.9 °C 6.6 °C 993.8 hPa Calm   2.6 km/h 98% 0.0 mm 0 W/m2
02:56 6.9 °C 6.6 °C 994.1 hPa Calm   2.6 km/h 98% 0.0 mm 0 W/m2
03:01 6.9 °C 6.6 °C 993.8 hPa Calm   2.6 km/h 98% 0.0 mm 0 W/m2
03:06 6.8 °C 6.5 °C 993.8 hPa NW 2.6 km/h 3.5 km/h 98% 0.0 mm 0 W/m2
03:11 6.8 °C 6.5 °C 993.8 hPa NW 2.6 km/h 5.0 km/h 98% 0.0 mm 0 W/m2
03:16 6.8 °C 6.5 °C 993.8 hPa NW 3.5 km/h 6.1 km/h 98% 0.0 mm 0 W/m2
03:21 6.8 °C 6.5 °C 993.8 hPa NW 3.5 km/h 6.1 km/h 98% 0.0 mm 0 W/m2
03:26 6.8 °C 6.5 °C 993.8 hPa NNW 3.5 km/h 6.1 km/h 98% 0.0 mm 0 W/m2
03:31 6.8 °C 6.5 °C 993.8 hPa NW 3.5 km/h 6.1 km/h 98% 0.0 mm 0 W/m2
03:36 6.8 °C 6.5 °C 993.8 hPa NW 3.5 km/h 6.1 km/h 98% 0.0 mm 0 W/m2
03:41 6.8 °C 6.5 °C 993.8 hPa NW 3.5 km/h 6.1 km/h 98% 0.0 mm 0 W/m2
03:46 6.8 °C 6.5 °C 993.8 hPa NNW 3.5 km/h 7.2 km/h 98% 0.0 mm 0 W/m2
03:51 6.8 °C 6.5 °C 993.8 hPa NNW 2.6 km/h 7.2 km/h 98% 0.0 mm 0 W/m2
03:56 6.7 °C 6.4 °C 993.8 hPa NW 3.5 km/h 6.1 km/h 98% 0.0 mm 0 W/m2
04:01 6.7 °C 6.4 °C 993.8 hPa NW 5.0 km/h 6.1 km/h 98% 0.0 mm 0 W/m2
04:06 6.7 °C 6.4 °C 994.1 hPa NW 5.0 km/h 6.1 km/h 98% 0.0 mm 0 W/m2
04:11 6.7 °C 6.4 °C 994.1 hPa NW 3.5 km/h 6.1 km/h 98% 0.0 mm 0 W/m2
04:16 6.6 °C 6.3 °C 994.1 hPa NW 3.5 km/h 6.1 km/h 98% 0.0 mm 0 W/m2
04:21 6.6 °C 6.3 °C 994.1 hPa NW 3.5 km/h 6.1 km/h 98% 0.0 mm 0 W/m2
04:26 6.6 °C 6.3 °C 994.1 hPa NW 3.5 km/h 6.1 km/h 98% 0.0 mm 0 W/m2
04:28 6.5 °C 6.2 °C 994.1 hPa NW 5.0 km/h 6.1 km/h 98% 0.0 mm 0 W/m2
04:33 6.5 °C 6.2 °C 994.1 hPa NW 3.5 km/h 7.2 km/h 98% 0.0 mm 0 W/m2
04:38 6.6 °C 6.3 °C 994.1 hPa NW 3.5 km/h 7.2 km/h 98% 0.0 mm 0 W/m2
04:43 6.6 °C 6.3 °C 994.1 hPa NW 3.5 km/h 7.2 km/h 98% 0.0 mm 0 W/m2
04:48 6.6 °C 6.3 °C 994.1 hPa NW 3.5 km/h 7.2 km/h 98% 0.0 mm 0 W/m2
04:53 6.7 °C 6.4 °C 994.1 hPa NNW 5.0 km/h 8.7 km/h 98% 0.0 mm 0 W/m2
04:58 6.8 °C 6.5 °C 994.1 hPa NNW 5.0 km/h 8.7 km/h 98% 0.0 mm 0 W/m2
05:03 7.1 °C 6.7 °C 994.5 hPa NW 5.0 km/h 8.7 km/h 97% 0.0 mm 0 W/m2
05:08 7.3 °C 6.8 °C 994.1 hPa NW 5.0 km/h 9.7 km/h 97% 0.0 mm 0 W/m2
05:13 7.5 °C 7.1 °C 994.5 hPa NNW 5.0 km/h 9.7 km/h 97% 0.0 mm 0 W/m2
05:18 7.6 °C 7.2 °C 994.5 hPa NNW 7.2 km/h 11.1 km/h 97% 0.0 mm 0 W/m2
05:23 7.8 °C 7.3 °C 994.5 hPa NNW 6.1 km/h 13.4 km/h 97% 0.0 mm 0 W/m2
05:28 7.8 °C 7.3 °C 994.8 hPa NNW 7.2 km/h 13.4 km/h 97% 0.0 mm 0 W/m2
05:33 7.9 °C 7.4 °C 994.5 hPa NW 5.0 km/h 12.2 km/h 97% 0.0 mm 0 W/m2
05:51 8.1 °C 7.8 °C 995.1 hPa NNW 6.1 km/h 12.2 km/h 98% 0.0 mm 0 W/m2
05:56 8.2 °C 7.9 °C 995.1 hPa North 5.0 km/h 11.1 km/h 98% 0.0 mm 0 W/m2
06:01 8.3 °C 7.8 °C 995.1 hPa NNW 6.1 km/h 11.1 km/h 97% 0.0 mm 0 W/m2
06:06 8.4 °C 7.9 °C 995.5 hPa NNW 5.0 km/h 9.7 km/h 97% 0.0 mm 0 W/m2
06:11 8.4 °C 7.9 °C 995.5 hPa North 8.7 km/h 11.1 km/h 97% 0.0 mm 0 W/m2
06:17 8.4 °C 7.8 °C 995.5 hPa NNW 6.1 km/h 11.1 km/h 96% 0.0 mm 0 W/m2
06:22 8.4 °C 7.8 °C 995.8 hPa NW 7.2 km/h 11.1 km/h 96% 0.0 mm 0 W/m2
06:27 8.4 °C 7.8 °C 995.8 hPa NNW 3.5 km/h 11.1 km/h 96% 0.0 mm 0 W/m2
06:32 8.5 °C 7.9 °C 996.2 hPa North 6.1 km/h 11.1 km/h 96% 0.0 mm 0 W/m2
06:37 8.5 °C 7.9 °C 996.2 hPa North 3.5 km/h 9.7 km/h 96% 0.0 mm 0 W/m2
06:42 8.5 °C 7.9 °C 996.2 hPa Calm   9.7 km/h 96% 0.0 mm 0 W/m2
06:47 8.6 °C 8.0 °C 996.5 hPa Calm   7.2 km/h 96% 0.0 mm 0 W/m2
06:52 8.5 °C 7.9 °C 996.5 hPa Calm   3.5 km/h 96% 0.0 mm 0 W/m2
06:57 8.5 °C 7.9 °C 996.5 hPa Calm   2.6 km/h 96% 0.0 mm 5 W/m2
07:02 8.5 °C 7.9 °C 996.8 hPa West 1.1 km/h 3.5 km/h 96% 0.0 mm 7 W/m2
07:07 8.6 °C 8.0 °C 996.8 hPa NW 3.5 km/h 5.0 km/h 96% 0.0 mm 5 W/m2
07:12 8.5 °C 7.9 °C 996.8 hPa NW 3.5 km/h 6.1 km/h 96% 0.0 mm 6 W/m2
07:18 8.3 °C 7.7 °C 997.2 hPa NW 3.5 km/h 6.1 km/h 96% 0.0 mm 11 W/m2
07:23 8.2 °C 7.6 °C 997.2 hPa NW 1.1 km/h 6.1 km/h 96% 0.0 mm 18 W/m2
07:28 8.1 °C 7.5 °C 997.2 hPa NW 2.6 km/h 6.1 km/h 96% 0.0 mm 33 W/m2
07:33 8.3 °C 7.8 °C 997.2 hPa NNW 3.5 km/h 6.1 km/h 97% 0.0 mm 96 W/m2
07:38 8.7 °C 8.3 °C 997.5 hPa NNW 2.6 km/h 6.1 km/h 97% 0.0 mm 124 W/m2
07:43 9.4 °C 8.8 °C 997.5 hPa NNW 2.6 km/h 6.1 km/h 96% 0.0 mm 130 W/m2
07:48 9.9 °C 9.1 °C 997.5 hPa NW 3.5 km/h 6.1 km/h 95% 0.0 mm 139 W/m2
07:53 10.2 °C 8.9 °C 997.9 hPa NW 2.6 km/h 6.1 km/h 92% 0.0 mm 147 W/m2
07:58 10.6 °C 8.9 °C 997.9 hPa NW 2.6 km/h 6.1 km/h 89% 0.0 mm 159 W/m2
08:03 10.9 °C 8.8 °C 997.9 hPa NW 1.1 km/h 6.1 km/h 87% 0.0 mm 167 W/m2
08:08 11.5 °C 9.2 °C 997.9 hPa NW 1.1 km/h 6.1 km/h 86% 0.0 mm 177 W/m2
08:13 12.0 °C 9.6 °C 998.2 hPa NW 1.1 km/h 3.5 km/h 85% 0.0 mm 186 W/m2
08:18 12.2 °C 9.6 °C 998.5 hPa Calm   6.1 km/h 84% 0.0 mm 194 W/m2
08:23 12.5 °C 9.7 °C 998.5 hPa WNW 3.5 km/h 7.2 km/h 83% 0.0 mm 199 W/m2
08:28 12.5 °C 9.3 °C 998.5 hPa NW 2.6 km/h 7.2 km/h 81% 0.0 mm 203 W/m2
08:33 12.7 °C 9.3 °C 998.5 hPa NNW 3.5 km/h 8.7 km/h 80% 0.0 mm 206 W/m2
08:38 13.1 °C 9.3 °C 998.9 hPa North 5.0 km/h 8.7 km/h 78% 0.0 mm 209 W/m2
08:43 13.4 °C 9.3 °C 998.9 hPa North 3.5 km/h 8.7 km/h 76% 0.0 mm 216 W/m2
08:48 13.8 °C 9.3 °C 998.9 hPa North 5.0 km/h 8.7 km/h 74% 0.0 mm 230 W/m2
08:53 14.0 °C 9.1 °C 998.9 hPa North 2.6 km/h 8.7 km/h 72% 0.0 mm 238 W/m2
08:58 14.3 °C 9.1 °C 998.9 hPa NNW 3.5 km/h 8.7 km/h 71% 0.0 mm 190 W/m2
09:09 14.4 °C 9.6 °C 998.9 hPa North 8.7 km/h 11.1 km/h 73% 0.0 mm 260 W/m2
09:14 14.5 °C 9.5 °C 998.9 hPa North 3.5 km/h 15.8 km/h 72% 0.0 mm 226 W/m2
09:19 14.9 °C 10.1 °C 998.9 hPa North 5.0 km/h 15.8 km/h 73% 0.0 mm 268 W/m2
09:24 15.2 °C 9.8 °C 998.9 hPa North 7.2 km/h 14.8 km/h 70% 0.0 mm 277 W/m2
09:29 15.4 °C 9.7 °C 998.9 hPa North 3.5 km/h 14.8 km/h 69% 0.0 mm 288 W/m2
09:34 15.8 °C 10.1 °C 998.9 hPa NNW 7.2 km/h 13.4 km/h 69% 0.0 mm 305 W/m2
09:39 15.7 °C 9.6 °C 998.9 hPa NNW 5.0 km/h 15.8 km/h 67% 0.0 mm 334 W/m2
09:44 15.8 °C 9.7 °C 998.9 hPa North 3.5 km/h 15.8 km/h 67% 0.0 mm 282 W/m2
09:49 15.7 °C 9.4 °C 999.2 hPa North 6.1 km/h 14.8 km/h 66% 0.0 mm 284 W/m2
09:54 15.7 °C 9.2 °C 998.9 hPa North 5.0 km/h 15.8 km/h 65% 0.0 mm 270 W/m2
09:59 15.8 °C 9.0 °C 998.9 hPa North 9.7 km/h 15.8 km/h 64% 0.0 mm 339 W/m2
10:04 16.1 °C 9.3 °C 998.9 hPa North 5.0 km/h 14.8 km/h 64% 0.0 mm 347 W/m2
10:09 16.3 °C 9.0 °C 998.9 hPa North 8.7 km/h 17.2 km/h 62% 0.0 mm 157 W/m2
10:14 16.3 °C 9.0 °C 999.2 hPa NNW 5.0 km/h 17.2 km/h 62% 0.0 mm 88 W/m2
10:19 16.5 °C 8.9 °C 998.9 hPa NNW 7.2 km/h 17.2 km/h 61% 0.0 mm 362 W/m2
10:24 16.7 °C 8.9 °C 998.9 hPa North 3.5 km/h 15.8 km/h 60% 0.0 mm 376 W/m2
10:29 17.1 °C 9.3 °C 998.9 hPa NNW 1.1 km/h 15.8 km/h 60% 0.0 mm 333 W/m2
10:34 17.4 °C 8.6 °C 999.2 hPa NNW 9.7 km/h 14.8 km/h 56% 0.0 mm 66 W/m2
10:40 17.4 °C 8.3 °C 999.2 hPa NNW 11.1 km/h 24.5 km/h 55% 0.0 mm 73 W/m2
10:45 17.3 °C 8.4 °C 999.5 hPa NNW 7.2 km/h 24.5 km/h 56% 0.0 mm 78 W/m2
10:50 17.6 °C 8.2 °C 999.2 hPa NNW 8.7 km/h 18.3 km/h 54% 0.0 mm 334 W/m2
10:55 17.7 °C 8.3 °C 999.2 hPa NNW 3.5 km/h 17.2 km/h 54% 0.0 mm 427 W/m2
11:00 18.1 °C 8.4 °C 999.2 hPa NNW 12.2 km/h 21.9 km/h 53% 0.0 mm 469 W/m2
11:05 18.0 °C 8.0 °C 999.2 hPa NW 6.1 km/h 21.9 km/h 52% 0.0 mm 479 W/m2
11:10 18.2 °C 7.9 °C 999.2 hPa NW 8.7 km/h 19.5 km/h 51% 0.0 mm 516 W/m2
11:15 18.3 °C 8.0 °C 999.5 hPa NW 9.7 km/h 20.9 km/h 51% 0.0 mm 445 W/m2
11:20 18.3 °C 7.1 °C 999.5 hPa NW 7.2 km/h 24.5 km/h 48% 0.0 mm 466 W/m2
11:25 18.4 °C 7.2 °C 999.5 hPa NW 9.7 km/h 24.5 km/h 48% 0.0 mm 492 W/m2
11:31 18.6 °C 7.1 °C 999.5 hPa WNW 8.7 km/h 24.5 km/h 47% 0.0 mm 550 W/m2
11:36 18.6 °C 6.8 °C 999.5 hPa West 6.1 km/h 25.6 km/h 46% 0.0 mm 496 W/m2
11:41 18.7 °C 6.8 °C 999.9 hPa West 9.7 km/h 25.6 km/h 46% 0.0 mm 538 W/m2
11:46 18.9 °C 7.3 °C 999.5 hPa West 8.7 km/h 23.3 km/h 47% 0.0 mm 415 W/m2
11:51 19.2 °C 7.3 °C 999.9 hPa WNW 5.0 km/h 20.9 km/h 46% 0.0 mm 572 W/m2
11:56 19.2 °C 7.9 °C 999.9 hPa West 18.3 km/h 23.3 km/h 48% 0.0 mm 629 W/m2
12:01 18.3 °C 8.8 °C 999.9 hPa SW 8.7 km/h 23.3 km/h 54% 0.0 mm 574 W/m2
12:06 18.2 °C 9.3 °C 999.9 hPa SW 11.1 km/h 23.3 km/h 56% 0.0 mm 583 W/m2
12:11 18.5 °C 9.3 °C 999.5 hPa SW 8.7 km/h 18.3 km/h 55% 0.0 mm 596 W/m2
12:16 18.7 °C 8.9 °C 999.5 hPa SSW 8.7 km/h 15.8 km/h 53% 0.0 mm 594 W/m2
12:21 19.1 °C 8.7 °C 999.5 hPa SW 2.6 km/h 14.8 km/h 51% 0.0 mm 637 W/m2
12:26 19.5 °C 8.8 °C 999.5 hPa West 6.1 km/h 14.8 km/h 50% 0.0 mm 680 W/m2
12:31 19.8 °C 8.2 °C 999.5 hPa WNW 5.0 km/h 19.5 km/h 47% 0.0 mm 701 W/m2
12:36 20.2 °C 8.6 °C 999.9 hPa WNW 6.1 km/h 19.5 km/h 47% 0.0 mm 642 W/m2
12:41 20.2 °C 8.2 °C 999.9 hPa West 15.8 km/h 28.0 km/h 46% 0.0 mm 584 W/m2
12:46 19.9 °C 8.6 °C 999.9 hPa WNW 6.1 km/h 28.0 km/h 48% 0.0 mm 686 W/m2
12:51 19.9 °C 8.6 °C 999.5 hPa NW 17.2 km/h 28.0 km/h 48% 0.0 mm 574 W/m2
12:56 20.0 °C 8.1 °C 999.9 hPa NW 3.5 km/h 20.9 km/h 46% 0.0 mm 605 W/m2
13:01 20.1 °C 8.1 °C 999.9 hPa NW 18.3 km/h 21.9 km/h 46% 0.0 mm 504 W/m2
13:06 19.8 °C 8.5 °C 1000.2 hPa WNW 8.7 km/h 21.9 km/h 48% 0.0 mm 206 W/m2
13:11 19.1 °C 8.7 °C 1000.2 hPa SW 9.7 km/h 20.9 km/h 51% 0.0 mm 218 W/m2
13:16 19.1 °C 8.4 °C 1000.2 hPa SW 8.7 km/h 17.2 km/h 50% 0.0 mm 454 W/m2
13:21 19.1 °C 7.6 °C 1000.2 hPa SW 11.1 km/h 17.2 km/h 47% 0.0 mm 271 W/m2
13:26 19.3 °C 7.7 °C 1000.2 hPa SW 8.7 km/h 13.4 km/h 47% 0.0 mm 602 W/m2
13:32 20.1 °C 7.5 °C 1000.2 hPa SSW 7.2 km/h 13.4 km/h 44% 0.0 mm 644 W/m2
13:37 20.5 °C 7.5 °C 1000.2 hPa South 2.6 km/h 13.4 km/h 43% 0.0 mm 639 W/m2
13:42 21.1 °C 7.7 °C 1000.2 hPa South 6.1 km/h 13.4 km/h 42% 0.0 mm 636 W/m2
13:47 20.9 °C 6.8 °C 1000.2 hPa South 6.1 km/h 15.8 km/h 40% 0.0 mm 562 W/m2
13:52 20.7 °C 7.7 °C 1000.2 hPa South 7.2 km/h 15.8 km/h 43% 0.0 mm 568 W/m2
13:57 20.3 °C 7.7 °C 1000.2 hPa SSE 8.7 km/h 15.8 km/h 44% 0.0 mm 592 W/m2
14:02 20.3 °C 7.3 °C 1000.6 hPa SSE 6.1 km/h 15.8 km/h 43% 0.0 mm 554 W/m2
14:07 20.3 °C 8.0 °C 1000.6 hPa South 9.7 km/h 14.8 km/h 45% 0.0 mm 142 W/m2
14:12 19.7 °C 9.0 °C 1000.6 hPa South 7.2 km/h 13.4 km/h 50% 0.0 mm 180 W/m2
14:22 20.1 °C 9.1 °C 1000.6 hPa South 8.7 km/h 13.4 km/h 49% 0.0 mm 649 W/m2
14:27 20.5 °C 8.8 °C 1000.6 hPa SSW 5.0 km/h 13.4 km/h 47% 0.0 mm 234 W/m2
14:32 20.5 °C 8.8 °C 1000.6 hPa SW 6.1 km/h 17.2 km/h 47% 0.0 mm 259 W/m2
14:37 20.5 °C 9.1 °C 1000.6 hPa SW 11.1 km/h 19.5 km/h 48% 0.0 mm 132 W/m2
14:42 20.3 °C 8.9 °C 1000.6 hPa SW 11.1 km/h 19.5 km/h 48% 0.0 mm 565 W/m2
14:47 21.0 °C 9.9 °C 1000.9 hPa SW 11.1 km/h 19.5 km/h 49% 0.0 mm 137 W/m2
14:52 20.6 °C 10.1 °C 1000.6 hPa SSW 2.6 km/h 18.3 km/h 51% 0.0 mm 426 W/m2
14:57 21.6 °C 10.1 °C 1000.6 hPa SSW 7.2 km/h 18.3 km/h 48% 0.0 mm 528 W/m2
15:02 21.7 °C 10.6 °C 1000.6 hPa SSW 5.0 km/h 18.3 km/h 49% 0.0 mm 487 W/m2
15:07 21.3 °C 9.2 °C 1000.6 hPa SW 18.3 km/h 23.3 km/h 46% 0.0 mm 327 W/m2
15:12 21.1 °C 9.4 °C 1000.6 hPa WSW 18.3 km/h 27.0 km/h 47% 0.0 mm 245 W/m2
15:17 20.6 °C 8.9 °C 1000.9 hPa SW 15.8 km/h 27.0 km/h 47% 0.0 mm 241 W/m2
15:22 20.8 °C 9.7 °C 1000.9 hPa SW 13.4 km/h 27.0 km/h 49% 0.0 mm 244 W/m2
15:27 20.5 °C 9.7 °C 1000.9 hPa WSW 11.1 km/h 21.9 km/h 50% 0.0 mm 126 W/m2
15:32 20.0 °C 9.6 °C 1001.2 hPa West 11.1 km/h 19.5 km/h 51% 0.0 mm 86 W/m2
15:37 19.9 °C 10.1 °C 1001.6 hPa West 5.0 km/h 19.5 km/h 53% 0.0 mm 185 W/m2
15:42 20.0 °C 9.8 °C 1001.2 hPa West 8.7 km/h 12.2 km/h 52% 0.0 mm 194 W/m2
15:47 19.6 °C 9.8 °C 1001.2 hPa West 1.1 km/h 15.8 km/h 53% 0.0 mm 133 W/m2
15:52 19.6 °C 9.8 °C 1001.6 hPa WNW 11.1 km/h 15.8 km/h 53% 0.0 mm 207 W/m2
15:57 19.7 °C 9.6 °C 1001.6 hPa West 2.6 km/h 13.4 km/h 52% 0.0 mm 124 W/m2
16:02 19.8 °C 9.9 °C 1001.6 hPa WSW 5.0 km/h 14.8 km/h 53% 0.0 mm 107 W/m2
16:07 19.6 °C 9.8 °C 1001.6 hPa SW 7.2 km/h 14.8 km/h 53% 0.0 mm 118 W/m2
16:12 19.1 °C 9.8 °C 1001.6 hPa SW 13.4 km/h 18.3 km/h 55% 0.0 mm 147 W/m2
16:17 18.8 °C 10.1 °C 1001.9 hPa SW 18.3 km/h 25.6 km/h 57% 0.0 mm 117 W/m2
16:22 18.4 °C 10.0 °C 1001.9 hPa SW 15.8 km/h 33.1 km/h 58% 0.0 mm 129 W/m2
16:27 18.3 °C 10.2 °C 1001.9 hPa SW 12.2 km/h 33.1 km/h 59% 0.0 mm 125 W/m2
16:32 18.3 °C 9.9 °C 1002.3 hPa WSW 13.4 km/h 33.1 km/h 58% 0.0 mm 163 W/m2
16:37 18.5 °C 9.8 °C 1002.3 hPa West 18.3 km/h 31.7 km/h 57% 0.0 mm 168 W/m2
16:42 18.4 °C 10.0 °C 1002.3 hPa WSW 13.4 km/h 31.7 km/h 58% 0.0 mm 141 W/m2
16:48 18.4 °C 9.7 °C 1002.6 hPa WSW 21.9 km/h 31.7 km/h 57% 0.0 mm 165 W/m2
16:53 18.4 °C 9.5 °C 1002.6 hPa West 13.4 km/h 33.1 km/h 56% 0.0 mm 137 W/m2
16:58 18.4 °C 9.7 °C 1002.9 hPa WSW 11.1 km/h 33.1 km/h 57% 0.0 mm 132 W/m2
17:03 18.3 °C 9.4 °C 1002.9 hPa WSW 20.9 km/h 34.3 km/h 56% 0.0 mm 130 W/m2
17:08 18.3 °C 9.4 °C 1002.9 hPa WSW 14.8 km/h 34.3 km/h 56% 0.0 mm 103 W/m2
17:14 18.2 °C 9.6 °C 1002.9 hPa WSW 11.1 km/h 25.6 km/h 57% 0.0 mm 115 W/m2
17:19 18.1 °C 9.4 °C 1002.9 hPa SW 13.4 km/h 27.0 km/h 57% 0.0 mm 100 W/m2
17:24 18.0 °C 9.1 °C 1003.3 hPa WSW 29.4 km/h 39.3 km/h 56% 0.0 mm 104 W/m2
17:29 18.0 °C 9.1 °C 1002.9 hPa WSW 12.2 km/h 39.3 km/h 56% 0.0 mm 132 W/m2
17:34 17.9 °C 9.0 °C 1003.3 hPa WSW 14.8 km/h 39.3 km/h 56% 0.0 mm 73 W/m2
17:39 17.7 °C 8.6 °C 1003.3 hPa WSW 15.8 km/h 29.4 km/h 55% 0.0 mm 62 W/m2
17:44 17.6 °C 8.4 °C 1003.6 hPa WSW 17.2 km/h 27.0 km/h 55% 0.0 mm 57 W/m2
17:49 17.6 °C 8.4 °C 1003.9 hPa SW 19.5 km/h 29.4 km/h 55% 0.0 mm 65 W/m2
17:54 17.7 °C 8.6 °C 1003.9 hPa SW 17.2 km/h 29.4 km/h 55% 0.0 mm 63 W/m2
17:59 17.7 °C 8.6 °C 1003.9 hPa WSW 11.1 km/h 29.4 km/h 55% 0.0 mm 57 W/m2
18:05 17.5 °C 8.6 °C 1004.3 hPa WSW 14.8 km/h 25.6 km/h 56% 0.0 mm 41 W/m2
18:10 17.4 °C 8.6 °C 1003.9 hPa WSW 6.1 km/h 23.3 km/h 56% 0.0 mm 34 W/m2
18:16 17.2 °C 8.6 °C 1004.3 hPa WSW 9.7 km/h 19.5 km/h 57% 0.0 mm 28 W/m2
18:21 17.0 °C 8.7 °C 1004.3 hPa WSW 11.1 km/h 19.5 km/h 58% 0.0 mm 24 W/m2
18:26 16.9 °C 9.1 °C 1004.6 hPa WSW 13.4 km/h 19.5 km/h 60% 0.0 mm 27 W/m2
18:31 16.7 °C 9.2 °C 1004.6 hPa WSW 11.1 km/h 19.5 km/h 61% 0.0 mm 25 W/m2
18:36 16.9 °C 8.6 °C 1004.6 hPa WSW 13.4 km/h 23.3 km/h 58% 0.0 mm 22 W/m2
18:41 16.9 °C 8.8 °C 1004.6 hPa SW 14.8 km/h 24.5 km/h 59% 0.0 mm 18 W/m2
18:46 16.9 °C 8.3 °C 1005.0 hPa WSW 18.3 km/h 31.7 km/h 57% 0.0 mm 16 W/m2
18:51 16.9 °C 8.6 °C 1005.0 hPa WSW 14.8 km/h 31.7 km/h 58% 0.0 mm 13 W/m2
18:56 16.7 °C 9.2 °C 1005.0 hPa WSW 11.1 km/h 29.4 km/h 61% 0.0 mm 10 W/m2
19:01 16.5 °C 9.2 °C 1005.3 hPa WSW 8.7 km/h 18.3 km/h 62% 0.0 mm 5 W/m2
19:06 16.4 °C 8.9 °C 1005.0 hPa WSW 13.4 km/h 25.6 km/h 61% 0.0 mm 2 W/m2
19:11 16.5 °C 8.7 °C 1005.3 hPa WSW 24.5 km/h 33.1 km/h 60% 0.0 mm 0 W/m2
19:16 16.5 °C 8.7 °C 1005.6 hPa SW 17.2 km/h 33.1 km/h 60% 0.0 mm 0 W/m2
19:21 16.4 °C 8.9 °C 1005.6 hPa WSW 21.9 km/h 29.4 km/h 61% 0.0 mm 0 W/m2
19:26 16.4 °C 8.4 °C 1005.6 hPa WSW 15.8 km/h 31.7 km/h 59% 0.0 mm 0 W/m2
19:31 16.5 °C 8.4 °C 1005.6 hPa WSW 14.8 km/h 31.7 km/h 59% 0.0 mm 0 W/m2
19:36 16.4 °C 8.9 °C 1006.0 hPa WSW 18.3 km/h 30.6 km/h 61% 0.0 mm 0 W/m2
19:41 16.3 °C 9.0 °C 1006.0 hPa SW 18.3 km/h 31.7 km/h 62% 0.0 mm 0 W/m2
19:46 16.2 °C 8.9 °C 1006.3 hPa WSW 17.2 km/h 34.3 km/h 62% 0.0 mm 0 W/m2
19:51 16.2 °C 9.2 °C 1006.3 hPa WSW 14.8 km/h 34.3 km/h 63% 0.0 mm 0 W/m2
19:56 16.1 °C 9.1 °C 1006.3 hPa WSW 14.8 km/h 30.6 km/h 63% 0.0 mm 0 W/m2
20:01 16.0 °C 8.9 °C 1006.7 hPa WSW 11.1 km/h 27.0 km/h 63% 0.0 mm 0 W/m2
20:06 16.0 °C 9.2 °C 1006.7 hPa WSW 3.5 km/h 25.6 km/h 64% 0.0 mm 0 W/m2
20:11 15.8 °C 9.0 °C 1007.0 hPa West 6.1 km/h 18.3 km/h 64% 0.0 mm 0 W/m2
20:16 15.7 °C 8.7 °C 1007.0 hPa Calm   12.2 km/h 63% 0.0 mm 0 W/m2
20:21 15.6 °C 8.6 °C 1007.3 hPa Calm   7.2 km/h 63% 0.0 mm 0 W/m2
20:26 15.6 °C 8.6 °C 1007.3 hPa Calm   5.0 km/h 63% 0.0 mm 0 W/m2
20:31 15.5 °C 8.5 °C 1007.3 hPa Calm   5.0 km/h 63% 0.0 mm 0 W/m2
20:36 15.4 °C 8.2 °C 1007.3 hPa Calm   2.6 km/h 62% 0.0 mm 0 W/m2
20:41 15.1 °C 8.3 °C 1007.7 hPa NNW 1.1 km/h 5.0 km/h 64% 0.0 mm 0 W/m2
20:46 14.7 °C 8.4 °C 1007.7 hPa Calm   5.0 km/h 66% 0.0 mm 0 W/m2
21:02 13.9 °C 8.5 °C 1008.0 hPa Calm   2.6 km/h 70% 0.0 mm 0 W/m2
21:07 13.6 °C 8.7 °C 1008.0 hPa North 1.1 km/h 2.6 km/h 72% 0.0 mm 0 W/m2
21:12 13.1 °C 8.8 °C 1008.4 hPa NNW 1.1 km/h 7.2 km/h 75% 0.0 mm 0 W/m2
21:17 12.9 °C 8.6 °C 1008.4 hPa Calm   7.2 km/h 75% 0.0 mm 0 W/m2
21:22 12.9 °C 8.6 °C 1008.4 hPa NW 1.1 km/h 5.0 km/h 75% 0.0 mm 0 W/m2
21:43 12.3 °C 8.2 °C 1009.0 hPa Calm   1.1 km/h 76% 0.0 mm 0 W/m2
21:48 12.1 °C 8.2 °C 1009.4 hPa Calm   3.5 km/h 77% 0.0 mm 0 W/m2
21:53 11.9 °C 8.4 °C 1009.4 hPa Calm   3.5 km/h 79% 0.0 mm 0 W/m2
21:58 11.6 °C 8.3 °C 1009.4 hPa Calm   2.6 km/h 80% 0.0 mm 0 W/m2
22:03 11.5 °C 8.6 °C 1009.7 hPa NNE 1.1 km/h 3.5 km/h 82% 0.0 mm 0 W/m2
22:08 11.5 °C 8.6 °C 1009.7 hPa Calm   3.5 km/h 82% 0.0 mm 0 W/m2
22:13 11.5 °C 8.7 °C 1010.0 hPa Calm   3.5 km/h 83% 0.0 mm 0 W/m2
22:18 11.7 °C 8.9 °C 1010.0 hPa SE 1.1 km/h 5.0 km/h 83% 0.0 mm 0 W/m2
22:23 12.1 °C 9.5 °C 1010.0 hPa WSW 1.1 km/h 6.1 km/h 84% 0.0 mm 0 W/m2
22:28 12.7 °C 10.4 °C 1010.0 hPa Calm   8.7 km/h 86% 0.0 mm 0 W/m2
22:33 12.8 °C 10.5 °C 1010.4 hPa Calm   8.7 km/h 86% 0.0 mm 0 W/m2
22:38 12.7 °C 10.2 °C 1010.0 hPa Calm     85% 0.0 mm 0 W/m2
22:43 12.5 °C 10.2 °C 1010.0 hPa Calm     86% 0.0 mm 0 W/m2
22:48 12.2 °C 9.9 °C 1010.4 hPa Calm     86% 0.0 mm 0 W/m2
22:53 12.1 °C 9.8 °C 1010.4 hPa Calm     86% 0.0 mm 0 W/m2
22:58 12.1 °C 10.2 °C 1010.4 hPa Calm     88% 0.0 mm 0 W/m2
23:03 12.0 °C 10.2 °C 1010.4 hPa Calm   1.1 km/h 89% 0.0 mm 0 W/m2
23:08 11.7 °C 9.9 °C 1010.7 hPa Calm   1.1 km/h 89% 0.0 mm 0 W/m2
23:13 11.5 °C 9.8 °C 1010.7 hPa Calm     89% 0.0 mm 0 W/m2
23:18 11.4 °C 9.7 °C 1010.7 hPa Calm   1.1 km/h 89% 0.0 mm 0 W/m2
23:23 11.3 °C 9.9 °C 1010.7 hPa Calm   1.1 km/h 91% 0.0 mm 0 W/m2
23:28 11.0 °C 9.8 °C 1010.7 hPa Calm   1.1 km/h 92% 0.0 mm 0 W/m2
23:33 10.8 °C 9.7 °C 1010.7 hPa Calm   2.6 km/h 93% 0.0 mm 0 W/m2
23:38 10.7 °C 9.6 °C 1010.7 hPa Calm   2.6 km/h 93% 0.0 mm 0 W/m2
23:43 10.7 °C 9.8 °C 1010.7 hPa NW 1.1 km/h 3.5 km/h 94% 0.0 mm 0 W/m2
23:48 10.6 °C 9.7 °C 1010.7 hPa Calm   3.5 km/h 94% 0.0 mm 0 W/m2
23:53 10.5 °C 9.6 °C 1011.1 hPa Calm   2.6 km/h 94% 0.0 mm 0 W/m2
23:58 10.3 °C 9.4 °C 1010.7 hPa Calm   1.1 km/h 94% 0.0 mm 0 W/m2
Northern Hawkes Bay. New Zealand Historic Data
Compliments of Weather Underground - 2 mb